Nearby METAR Reports

EGQS - RAF Lossiemouth, UK
Distance from station: WNW 12mi, 19km
Updated: 30/01/2023 20:20
Mostly cloudy
Mostly cloudy
 Wind from SSW
Wind: SSW 14 mph , 22 km/h
Temperature: 7°C
Wind Chill: 4°C
Dew Point: 2°C
Humidity: 71%
Barometer: 1012 hPa
Clouds: Mostly cloudy
Visibility: 6 miles , 10 km
Cloud details: Partly cloudy 1158 m
Mostly cloudy 2438 m
2023/01/30 20:20 EGQS 302020Z 21012KT 9999 SCT038 BKN080 07/02 Q1012 NOSIG RMK BLU BLU
EGQK - RAF Kinloss, UK
Distance from station: WSW 22mi, 36km
Updated: 30/01/2023 19:50
Overcast
Overcast
 Wind from SSW
Wind: SSW 8 mph , 13 km/h
Temperature: 7°C
Wind Chill: 5°C
Dew Point: 2°C
Humidity: 71%
Barometer: 1012 hPa
Clouds: Overcast
Visibility: 6 miles , 10 km
Cloud details: Overcast 1158 m
2023/01/30 19:50 EGQK 301950Z AUTO 20007KT 9999 OVC038/// 07/02 Q1012
 
EGPE - Inverness/Dalcross, UK
Distance from station: WSW 39mi, 63km
Updated: 30/01/2023 20:20
Partly cloudy
Partly cloudy
 Wind from SW
Wind: SW 15 mph , 24 km/h
Temperature: 7°C
Wind Chill: 3°C
Dew Point: 4°C
Humidity: 81%
Barometer: 1012 hPa
Clouds: Partly cloudy
Visibility: 6 miles , 10 km
Cloud details: Few Clouds 610 m
Partly cloudy 1067 m
2023/01/30 20:20 EGPE 302020Z 22013KT 9999 FEW020 SCT035 07/04 Q1012
EGPD - Aberdeen/Dyce, UK
Distance from station: SE 44mi, 71km
Updated: 30/01/2023 20:20
Clear
Clear
 Wind from S
Wind: S 12 mph , 19 km/h
Temperature: 6°C
Wind Chill: 3°C
Dew Point: 2°C
Humidity: 76%
Barometer: 1014 hPa
Clouds: Clear
Visibility: 6 miles , 10 km
2023/01/30 20:20 EGPD 302020Z AUTO 19010KT 9999 NCD 06/02 Q1014 NOSIG